Impacts METAR Board INFO
IDs:

KDCA - Washington/National, VA, US

Updated at: 1704 UTC 14 Dec 2017
Potential Impact None Slight Moderate High
Time14/05Z 14/06Z 14/07Z 14/08Z 14/09Z 14/10Z 14/11Z 14/12Z 14/13Z 14/14Z 14/15Z 14/16Z 14/17Z
VIS10 10 10 10 10 10 10 10 10 10 10 10 10
CIG90 100 110 -- -- -- 75 80 -- -- 50 55 60
CoverOVCOVCBKNSCTSCTSCTBKNBKNSCTSCTBKNBKNBKN
FltCatVFRVFRVFRVFRVFRVFRVFRVFRVFRVFRVFRVFRVFR
WX--------------------------
WDir190200190190190230240230260290300330320
WSpd14 10 10 9 10 8 7 6 5 11 17 21 15
WGst-- -- -- -- -- -- -- -- -- 16 23 28 26
Raw hourly METARs
KDCA 140452Z 19014KT 10SM OVC090 02/M09 A2960 RMK AO2 SLP021 T00221089 400221050
KDCA 140552Z 20010KT 10SM OVC100 03/M09 A2957 RMK AO2 SLP011 60000 T00281094 10028 20011 56034
KDCA 140652Z 19010KT 10SM BKN110 02/M09 A2954 RMK AO2 SLP003 T00221089
KDCA 140752Z 19009KT 10SM SCT100 02/M08 A2953 RMK AO2 SLP000 T00171078
KDCA 140852Z 19010KT 10SM SCT080 02/M07 A2952 RMK AO2 SLP995 T00221072 56016
KDCA 140952Z 23008KT 10SM SCT080 02/M07 A2953 RMK AO2 SLP997 T00221067
KDCA 141052Z 24007KT 10SM BKN075 03/M08 A2957 RMK AO2 SLP011 T00331078
KDCA 141152Z 23006KT 10SM SCT065 BKN080 BKN100 03/M08 A2962 RMK AO2 SLP029 T00281078 10033 20017 53035
KDCA 141252Z 26005KT 10SM SCT065 SCT080 SCT100 03/M07 A2967 RMK AO2 SLP047 T00331072
KDCA 141352Z 29011G16KT 10SM SCT050 SCT080 05/M06 A2972 RMK AO2 SLP063 T00501056
KDCA 141452Z 30017G23KT 10SM BKN050 BKN130 07/M05 A2977 RMK AO2 SLP082 T00671050 53052
KDCA 141552Z 33021G28KT 10SM BKN055 06/M06 A2984 RMK AO2 PK WND 34028/1552 SLP102 T00561056
KDCA 141652Z 32015G26KT 10SM SCT047 BKN060 05/M07 A2988 RMK AO2 PK WND 34029/1553 SLP119 T00501067